createdAt,value
2018-12-05T00:01:05.133Z,82.25
2018-12-05T00:06:07.366Z,83.47
2018-12-05T00:11:09.457Z,84.41
2018-12-05T00:16:11.671Z,83.99
2018-12-05T00:21:13.722Z,83.26
2018-12-05T00:26:15.824Z,83.42
2018-12-05T00:31:18.028Z,84.39
2018-12-05T00:36:20.099Z,83.43
2018-12-05T00:41:22.210Z,84.10
2018-12-05T00:46:24.288Z,84.62
2018-12-05T00:51:26.593Z,86.87
2018-12-05T00:56:28.659Z,87.34
2018-12-05T01:01:30.816Z,87.92
2018-12-05T01:06:33.150Z,88.80
2018-12-05T01:11:35.213Z,87.41
2018-12-05T01:16:37.667Z,87.98
2018-12-05T01:21:39.960Z,87.40
2018-12-05T01:26:42.056Z,87.31
2018-12-05T01:31:44.089Z,88.04
2018-12-05T01:36:46.290Z,89.29
2018-12-05T01:41:48.353Z,90.98
2018-12-05T01:46:50.545Z,91.05
2018-12-05T01:51:52.722Z,91.54
2018-12-05T01:56:54.803Z,92.83
2018-12-05T02:01:57.019Z,93.62
2018-12-05T02:06:59.331Z,93.93
2018-12-05T02:12:01.853Z,94.15
2018-12-05T02:17:04.070Z,94.45
2018-12-05T02:22:06.244Z,94.22
2018-12-05T02:27:08.423Z,94.97
2018-12-05T02:32:10.500Z,95.30
2018-12-05T02:37:12.571Z,95.07
2018-12-05T02:42:14.641Z,94.02
2018-12-05T02:47:16.847Z,93.82
2018-12-05T02:52:19.048Z,94.47
2018-12-05T02:57:21.136Z,93.23
2018-12-05T03:02:23.448Z,92.84
2018-12-05T03:07:25.533Z,92.14
2018-12-05T03:12:27.601Z,94.07
2018-12-05T03:17:29.672Z,94.38
2018-12-05T03:22:31.723Z,92.93
2018-12-05T03:27:33.780Z,92.60
2018-12-05T03:32:35.888Z,93.09
2018-12-05T03:37:37.969Z,93.58
2018-12-05T03:42:40.071Z,93.20
2018-12-05T03:47:42.253Z,92.08
2018-12-05T03:52:44.459Z,93.25
2018-12-05T03:57:46.553Z,93.38
2018-12-05T04:02:48.638Z,92.72
2018-12-05T04:07:50.714Z,93.11
2018-12-05T04:12:52.803Z,92.26
2018-12-05T04:17:54.867Z,92.51
2018-12-05T04:22:56.958Z,92.73
2018-12-05T04:27:59.135Z,92.24
2018-12-05T04:33:01.222Z,92.54
2018-12-05T04:38:03.575Z,93.32
2018-12-05T04:43:05.648Z,93.02
2018-12-05T04:48:07.748Z,92.80
2018-12-05T04:53:09.856Z,92.40
2018-12-05T04:58:12.025Z,91.87
2018-12-05T05:03:14.226Z,91.88
2018-12-05T05:08:16.293Z,91.77
2018-12-05T05:13:18.372Z,91.64
2018-12-05T05:18:20.544Z,90.13
2018-12-05T05:23:22.611Z,91.49
2018-12-05T05:28:24.699Z,91.24
2018-12-05T05:33:26.767Z,91.58
2018-12-05T05:38:28.872Z,90.97
2018-12-05T05:43:30.948Z,91.36
2018-12-05T05:48:33.017Z,90.40
2018-12-05T05:53:35.229Z,90.87
2018-12-05T05:58:37.308Z,90.77
2018-12-05T06:03:39.525Z,91.60
2018-12-05T06:08:41.608Z,92.04
2018-12-05T06:13:43.690Z,91.76
2018-12-05T06:18:45.876Z,92.28
2018-12-05T06:23:47.928Z,92.20
2018-12-05T06:28:50.112Z,92.21
2018-12-05T06:33:52.181Z,92.11
2018-12-05T06:38:54.247Z,91.47
2018-12-05T06:43:56.438Z,90.70
2018-12-05T06:48:58.623Z,91.66
2018-12-05T06:54:00.805Z,93.07
2018-12-05T06:59:02.897Z,92.95
2018-12-05T07:04:05.216Z,92.56
2018-12-05T07:09:08.441Z,92.18
2018-12-05T07:14:10.517Z,92.45
2018-12-05T07:19:12.698Z,91.30
2018-12-05T07:24:14.772Z,89.83
2018-12-05T07:29:16.989Z,90.71
2018-12-05T07:34:19.107Z,90.49
2018-12-05T07:39:21.166Z,92.08
2018-12-05T07:44:23.438Z,92.70
2018-12-05T07:49:25.525Z,91.53
2018-12-05T07:54:27.603Z,90.65
2018-12-05T07:59:29.684Z,91.17
2018-12-05T08:04:31.919Z,89.58
2018-12-05T08:09:34.028Z,91.92
2018-12-05T08:14:36.108Z,92.06
2018-12-05T08:19:38.307Z,92.53
2018-12-05T08:24:40.401Z,92.77
2018-12-05T08:29:42.572Z,92.67
2018-12-05T08:34:44.680Z,92.39
2018-12-05T08:39:46.800Z,92.37
2018-12-05T08:44:48.901Z,91.94
2018-12-05T08:49:51.014Z,92.48
2018-12-05T08:54:53.632Z,92.22
2018-12-05T08:59:55.709Z,92.09
2018-12-05T09:04:57.961Z,92.66
2018-12-05T09:10:00.142Z,91.74
2018-12-05T09:15:02.467Z,90.62
2018-12-05T09:20:05.313Z,90.42
2018-12-05T09:25:07.622Z,91.12
2018-12-05T09:30:09.920Z,90.35
2018-12-05T09:35:12.109Z,90.47
2018-12-05T09:40:14.402Z,89.97
2018-12-05T09:45:16.504Z,88.68
2018-12-05T09:50:18.841Z,88.26
2018-12-05T09:55:20.955Z,89.06
2018-12-05T10:00:23.053Z,87.03
2018-12-05T10:05:25.173Z,87.94
2018-12-05T10:10:27.256Z,88.24
2018-12-05T10:15:29.459Z,87.17
2018-12-05T10:20:31.733Z,86.51
2018-12-05T10:25:33.925Z,86.17
2018-12-05T10:30:36.037Z,86.77
2018-12-05T10:35:38.131Z,84.32
2018-12-05T10:40:40.263Z,82.96
2018-12-05T10:45:42.313Z,82.07
2018-12-05T10:50:44.500Z,81.22
2018-12-05T10:55:46.715Z,81.42
2018-12-05T11:00:54.804Z,79.62
2018-12-05T11:06:02.732Z,78.94
2018-12-05T11:11:10.613Z,78.30
2018-12-05T11:16:18.284Z,79.40
2018-12-05T11:21:26.197Z,80.81
2018-12-05T11:26:31.366Z,81.43
2018-12-05T11:31:33.467Z,82.99
2018-12-05T11:36:35.572Z,84.19
2018-12-05T11:41:38.021Z,84.55
2018-12-05T11:46:40.129Z,85.00
2018-12-05T11:51:42.352Z,83.55
2018-12-05T11:56:44.448Z,83.95
2018-12-05T12:01:46.450Z,84.35
2018-12-05T12:06:48.593Z,82.67
2018-12-05T12:11:51.138Z,81.39
2018-12-05T12:16:53.443Z,80.75
2018-12-05T12:21:55.658Z,80.69
2018-12-05T12:26:57.736Z,81.88
2018-12-05T12:31:59.929Z,81.82
2018-12-05T12:37:02.085Z,83.37
2018-12-05T12:42:04.264Z,80.74
2018-12-05T12:47:07.576Z,81.28
2018-12-05T12:52:09.671Z,82.35
2018-12-05T12:57:11.765Z,82.08
2018-12-05T13:02:13.972Z,84.28
2018-12-05T13:07:16.103Z,83.70
2018-12-05T13:12:23.978Z,83.89
2018-12-05T13:17:26.214Z,84.98
2018-12-05T13:22:28.391Z,84.47
2018-12-05T13:27:30.633Z,85.23
2018-12-05T13:32:32.705Z,83.99
2018-12-05T13:37:35.000Z,83.71
2018-12-05T13:42:37.208Z,83.78
2018-12-05T13:47:39.441Z,83.64
2018-12-05T13:52:41.664Z,86.13
2018-12-05T13:57:44.080Z,87.24
2018-12-05T14:02:46.161Z,87.68
2018-12-05T14:07:48.275Z,87.94
2018-12-05T14:12:50.382Z,87.20
2018-12-05T14:17:52.433Z,87.60
2018-12-05T14:22:54.658Z,88.03
2018-12-05T14:27:56.858Z,87.55
2018-12-05T14:32:58.953Z,88.01
2018-12-05T14:38:01.176Z,87.80
2018-12-05T14:43:03.400Z,88.56
2018-12-05T14:48:05.646Z,88.85
2018-12-05T14:53:07.799Z,89.07
2018-12-05T14:58:09.889Z,88.08
2018-12-05T15:03:11.984Z,87.26
2018-12-05T15:08:14.112Z,87.74
2018-12-05T15:13:16.203Z,88.44
2018-12-05T15:18:18.332Z,88.08
2018-12-05T15:23:20.469Z,89.15
2018-12-05T15:28:22.709Z,89.28
2018-12-05T15:33:24.806Z,88.43
2018-12-05T15:38:26.900Z,88.81
2018-12-05T15:43:29.028Z,89.69
2018-12-05T15:48:31.155Z,90.23
2018-12-05T15:53:33.316Z,90.18
2018-12-05T15:58:35.424Z,90.47
2018-12-05T16:03:43.149Z,89.69
2018-12-05T16:08:41.716Z,90.14
2018-12-05T16:13:44.075Z,90.39
2018-12-05T16:18:46.198Z,89.70
2018-12-05T16:23:48.334Z,89.83
2018-12-05T16:28:50.425Z,90.16
2018-12-05T16:33:52.553Z,91.44
2018-12-05T16:38:54.693Z,91.30
2018-12-05T16:43:56.966Z,90.89
2018-12-05T16:48:59.078Z,89.95
2018-12-05T16:54:01.199Z,90.67
2018-12-05T16:59:03.316Z,90.58
2018-12-05T17:04:05.554Z,88.39
2018-12-05T17:09:07.983Z,88.18
2018-12-05T17:14:10.137Z,88.69
2018-12-05T17:19:12.273Z,88.05
2018-12-05T17:24:14.401Z,89.59
2018-12-05T17:29:16.528Z,89.66
2018-12-05T17:34:18.749Z,89.02
2018-12-05T17:39:21.117Z,87.91
2018-12-05T17:44:23.226Z,88.59
2018-12-05T17:49:25.322Z,89.37
2018-12-05T17:54:27.568Z,88.23
2018-12-05T17:59:29.694Z,88.54
2018-12-05T18:04:31.839Z,88.06
2018-12-05T18:09:34.000Z,87.37
2018-12-05T18:14:36.113Z,86.95
2018-12-05T18:19:38.223Z,86.36
2018-12-05T18:24:40.477Z,86.24
2018-12-05T18:29:42.581Z,85.91
2018-12-05T18:34:44.765Z,85.44
2018-12-05T18:39:46.983Z,85.58
2018-12-05T18:44:49.127Z,85.33
2018-12-05T18:49:51.226Z,85.04
2018-12-05T18:54:53.569Z,84.42
2018-12-05T19:00:01.341Z,84.39
2018-12-05T19:05:00.073Z,84.56
2018-12-05T19:10:03.475Z,84.30
2018-12-05T19:15:06.082Z,84.75
2018-12-05T19:20:08.384Z,83.25
2018-12-05T19:25:11.018Z,82.50
2018-12-05T19:30:13.267Z,81.86
2018-12-05T19:35:15.447Z,82.13
2018-12-05T19:40:17.828Z,81.42
2018-12-05T19:45:21.852Z,81.18
2018-12-05T19:50:26.858Z,81.61
2018-12-05T19:55:29.956Z,81.02
2018-12-05T20:00:32.411Z,80.24
2018-12-05T20:05:37.471Z,80.25
2018-12-05T20:10:43.242Z,79.52
2018-12-05T20:15:48.317Z,78.72
2018-12-05T20:20:53.722Z,78.69
2018-12-05T20:25:59.616Z,78.23
2018-12-05T20:31:05.291Z,78.45
2018-12-05T20:36:10.630Z,79.18
2018-12-05T20:41:14.201Z,78.97
2018-12-05T20:46:19.400Z,79.02
2018-12-05T20:51:22.357Z,78.64
2018-12-05T20:56:27.521Z,78.60
2018-12-05T21:01:32.599Z,78.63
2018-12-05T21:06:36.365Z,77.76
2018-12-05T21:11:39.520Z,78.38
2018-12-05T21:16:42.267Z,78.31
2018-12-05T21:21:44.601Z,78.19
2018-12-05T21:26:46.811Z,77.98
2018-12-05T21:31:49.075Z,79.03
2018-12-05T21:36:51.171Z,78.65
2018-12-05T21:41:54.025Z,78.95
2018-12-05T21:46:56.374Z,78.99
2018-12-05T21:51:58.609Z,78.97
2018-12-05T21:57:00.726Z,81.29
2018-12-05T22:02:02.848Z,79.66
2018-12-05T22:07:05.082Z,79.80
2018-12-05T22:12:07.185Z,79.83
2018-12-05T22:17:09.276Z,86.50
2018-12-05T22:22:11.387Z,80.57
2018-12-05T22:27:13.493Z,80.54
2018-12-05T22:32:15.671Z,80.45
2018-12-05T22:37:17.883Z,80.52
2018-12-05T22:42:20.015Z,81.02
2018-12-05T22:47:22.078Z,81.21
2018-12-05T22:52:24.295Z,81.82
2018-12-05T22:57:26.396Z,81.86
2018-12-05T23:02:28.592Z,81.81
2018-12-05T23:07:30.707Z,82.81
2018-12-05T23:12:32.848Z,83.40
2018-12-05T23:17:34.943Z,83.32
2018-12-05T23:22:37.294Z,82.23
2018-12-05T23:27:39.494Z,83.23
2018-12-05T23:32:41.581Z,82.75
2018-12-05T23:37:44.097Z,82.47
2018-12-05T23:42:47.717Z,82.36
2018-12-05T23:47:49.793Z,82.50
2018-12-05T23:52:51.865Z,82.93
2018-12-05T23:57:54.027Z,83.06
